sensor_id;sensor_type;location;lat;lon;timestamp;pressure;altitude;pressure_sealevel;temperature;humidity
38612;BME280;24368;52.156;20.788;2023-04-27T00:03:04;100468.77;;;3.44;98.61
38612;BME280;24368;52.156;20.788;2023-04-27T00:08:05;100474.75;;;3.56;98.42
38612;BME280;24368;52.156;20.788;2023-04-27T00:13:07;100476.83;;;3.48;98.44
38612;BME280;24368;52.156;20.788;2023-04-27T00:18:08;100474.83;;;3.37;98.81
38612;BME280;24368;52.156;20.788;2023-04-27T00:23:09;100473.39;;;3.25;99.78
38612;BME280;24368;52.156;20.788;2023-04-27T00:28:10;100476.92;;;3.21;100.00
38612;BME280;24368;52.156;20.788;2023-04-27T00:33:11;100479.98;;;3.17;100.00
38612;BME280;24368;52.156;20.788;2023-04-27T00:38:13;100477.84;;;3.07;100.00
38612;BME280;24368;52.156;20.788;2023-04-27T00:43:14;100487.00;;;3.06;100.00
38612;BME280;24368;52.156;20.788;2023-04-27T00:48:15;100487.15;;;2.99;100.00
38612;BME280;24368;52.156;20.788;2023-04-27T00:53:17;100490.55;;;2.95;100.00
38612;BME280;24368;52.156;20.788;2023-04-27T00:58:19;100489.27;;;3.01;100.00
38612;BME280;24368;52.156;20.788;2023-04-27T01:03:21;100493.62;;;3.03;100.00
38612;BME280;24368;52.156;20.788;2023-04-27T01:08:22;100496.08;;;2.95;100.00
38612;BME280;24368;52.156;20.788;2023-04-27T01:13:24;100496.44;;;2.92;100.00
38612;BME280;24368;52.156;20.788;2023-04-27T01:18:25;100500.20;;;2.88;100.00
38612;BME280;24368;52.156;20.788;2023-04-27T01:23:26;100502.17;;;2.82;100.00
38612;BME280;24368;52.156;20.788;2023-04-27T01:28:27;100502.11;;;2.75;100.00
38612;BME280;24368;52.156;20.788;2023-04-27T01:33:29;100503.11;;;2.73;100.00
38612;BME280;24368;52.156;20.788;2023-04-27T01:38:33;100504.44;;;2.71;100.00
38612;BME280;24368;52.156;20.788;2023-04-27T01:43:35;100501.91;;;2.64;100.00
38612;BME280;24368;52.156;20.788;2023-04-27T01:48:41;100502.74;;;2.60;100.00
38612;BME280;24368;52.156;20.788;2023-04-27T01:53:42;100511.46;;;2.67;100.00
38612;BME280;24368;52.156;20.788;2023-04-27T01:58:43;100517.51;;;2.65;100.00
38612;BME280;24368;52.156;20.788;2023-04-27T02:03:44;100514.59;;;2.73;100.00
38612;BME280;24368;52.156;20.788;2023-04-27T02:08:45;100516.02;;;2.67;100.00
38612;BME280;24368;52.156;20.788;2023-04-27T02:13:46;100513.55;;;2.57;100.00
38612;BME280;24368;52.156;20.788;2023-04-27T02:18:48;100513.69;;;2.55;100.00
38612;BME280;24368;52.156;20.788;2023-04-27T02:23:49;100510.71;;;2.52;100.00
38612;BME280;24368;52.156;20.788;2023-04-27T02:28:50;100510.43;;;2.49;100.00
38612;BME280;24368;52.156;20.788;2023-04-27T02:33:51;100516.95;;;2.42;100.00
38612;BME280;24368;52.156;20.788;2023-04-27T02:38:52;100515.40;;;2.44;100.00
38612;BME280;24368;52.156;20.788;2023-04-27T02:43:53;100520.08;;;2.44;100.00
38612;BME280;24368;52.156;20.788;2023-04-27T02:48:54;100524.93;;;2.47;100.00
38612;BME280;24368;52.156;20.788;2023-04-27T02:53:56;100523.80;;;2.41;100.00
38612;BME280;24368;52.156;20.788;2023-04-27T02:58:57;100526.13;;;2.42;100.00
38612;BME280;24368;52.156;20.788;2023-04-27T03:03:58;100526.13;;;2.37;100.00
38612;BME280;24368;52.156;20.788;2023-04-27T03:09:00;100524.35;;;2.30;100.00
38612;BME280;24368;52.156;20.788;2023-04-27T03:14:01;100532.00;;;2.18;100.00
38612;BME280;24368;52.156;20.788;2023-04-27T03:19:03;100530.63;;;2.18;100.00
38612;BME280;24368;52.156;20.788;2023-04-27T03:24:04;100533.57;;;2.15;100.00
38612;BME280;24368;52.156;20.788;2023-04-27T03:29:05;100535.39;;;2.08;100.00
38612;BME280;24368;52.156;20.788;2023-04-27T03:34:06;100534.20;;;2.08;100.00
38612;BME280;24368;52.156;20.788;2023-04-27T03:39:07;100540.73;;;2.09;100.00
38612;BME280;24368;52.156;20.788;2023-04-27T03:44:08;100536.60;;;2.00;100.00
38612;BME280;24368;52.156;20.788;2023-04-27T03:49:09;100542.77;;;1.93;100.00
38612;BME280;24368;52.156;20.788;2023-04-27T03:54:11;100558.59;;;1.87;100.00
38612;BME280;24368;52.156;20.788;2023-04-27T03:59:12;100566.76;;;1.87;100.00
38612;BME280;24368;52.156;20.788;2023-04-27T04:04:13;100569.46;;;1.86;100.00
38612;BME280;24368;52.156;20.788;2023-04-27T04:09:14;100567.45;;;1.96;100.00
38612;BME280;24368;52.156;20.788;2023-04-27T04:14:16;100570.27;;;2.01;100.00
38612;BME280;24368;52.156;20.788;2023-04-27T04:19:17;100573.75;;;2.06;100.00
38612;BME280;24368;52.156;20.788;2023-04-27T04:24:18;100575.69;;;2.06;100.00
38612;BME280;24368;52.156;20.788;2023-04-27T04:29:19;100577.39;;;2.09;100.00
38612;BME280;24368;52.156;20.788;2023-04-27T04:34:21;100581.70;;;2.13;100.00
38612;BME280;24368;52.156;20.788;2023-04-27T04:39:23;100586.42;;;2.18;100.00
38612;BME280;24368;52.156;20.788;2023-04-27T04:44:24;100587.21;;;2.34;100.00
38612;BME280;24368;52.156;20.788;2023-04-27T04:49:26;100586.95;;;2.51;100.00
38612;BME280;24368;52.156;20.788;2023-04-27T04:54:27;100592.60;;;2.69;100.00
38612;BME280;24368;52.156;20.788;2023-04-27T04:59:32;100598.00;;;2.83;100.00
38612;BME280;24368;52.156;20.788;2023-04-27T05:04:34;100596.02;;;2.89;100.00
38612;BME280;24368;52.156;20.788;2023-04-27T05:09:35;100601.98;;;2.97;100.00
38612;BME280;24368;52.156;20.788;2023-04-27T05:14:36;100600.27;;;3.07;100.00
38612;BME280;24368;52.156;20.788;2023-04-27T05:19:37;100603.45;;;3.14;100.00
38612;BME280;24368;52.156;20.788;2023-04-27T05:24:38;100604.22;;;3.29;100.00
38612;BME280;24368;52.156;20.788;2023-04-27T05:29:40;100604.98;;;3.46;100.00
38612;BME280;24368;52.156;20.788;2023-04-27T05:34:41;100610.23;;;3.59;100.00
38612;BME280;24368;52.156;20.788;2023-04-27T05:39:44;100612.36;;;3.71;100.00
38612;BME280;24368;52.156;20.788;2023-04-27T05:44:45;100608.96;;;3.81;100.00
38612;BME280;24368;52.156;20.788;2023-04-27T05:49:53;100614.14;;;3.91;100.00
38612;BME280;24368;52.156;20.788;2023-04-27T05:54:55;100620.59;;;3.99;100.00
38612;BME280;24368;52.156;20.788;2023-04-27T05:59:58;100617.56;;;4.05;100.00
38612;BME280;24368;52.156;20.788;2023-04-27T06:04:59;100617.55;;;4.18;100.00
38612;BME280;24368;52.156;20.788;2023-04-27T06:10:00;100618.89;;;4.29;99.39
38612;BME280;24368;52.156;20.788;2023-04-27T06:15:02;100622.52;;;4.34;99.89
38612;BME280;24368;52.156;20.788;2023-04-27T06:20:08;100625.08;;;4.45;100.00
38612;BME280;24368;52.156;20.788;2023-04-27T06:25:09;100627.16;;;4.52;99.88
38612;BME280;24368;52.156;20.788;2023-04-27T06:30:11;100634.17;;;4.59;99.59
38612;BME280;24368;52.156;20.788;2023-04-27T06:35:12;100636.17;;;4.73;99.73
38612;BME280;24368;52.156;20.788;2023-04-27T06:40:14;100644.39;;;4.73;99.75
38612;BME280;24368;52.156;20.788;2023-04-27T06:45:15;100641.40;;;4.80;99.99
38612;BME280;24368;52.156;20.788;2023-04-27T06:50:16;100645.41;;;4.90;100.00
38612;BME280;24368;52.156;20.788;2023-04-27T06:55:17;100655.34;;;5.02;99.98
38612;BME280;24368;52.156;20.788;2023-04-27T07:00:19;100656.39;;;5.12;100.00
38612;BME280;24368;52.156;20.788;2023-04-27T07:05:20;100653.38;;;5.27;100.00
38612;BME280;24368;52.156;20.788;2023-04-27T07:10:21;100655.63;;;5.37;100.00
38612;BME280;24368;52.156;20.788;2023-04-27T07:15:22;100656.30;;;5.51;99.79
38612;BME280;24368;52.156;20.788;2023-04-27T07:20:24;100652.25;;;5.61;100.00
38612;BME280;24368;52.156;20.788;2023-04-27T07:25:25;100657.64;;;5.80;99.24
38612;BME280;24368;52.156;20.788;2023-04-27T07:30:27;100661.61;;;5.99;95.45
38612;BME280;24368;52.156;20.788;2023-04-27T07:35:30;100662.73;;;6.12;92.91
38612;BME280;24368;52.156;20.788;2023-04-27T07:40:31;100662.41;;;6.26;92.10
38612;BME280;24368;52.156;20.788;2023-04-27T07:45:34;100659.36;;;6.38;89.48
38612;BME280;24368;52.156;20.788;2023-04-27T07:50:38;100657.56;;;6.54;89.96
38612;BME280;24368;52.156;20.788;2023-04-27T08:03:41;100670.55;;;6.76;90.61
38612;BME280;24368;52.156;20.788;2023-04-27T08:08:42;100672.05;;;6.86;88.53
38612;BME280;24368;52.156;20.788;2023-04-27T08:13:43;100671.36;;;7.03;88.10
38612;BME280;24368;52.156;20.788;2023-04-27T08:18:44;100668.79;;;7.39;85.97
38612;BME280;24368;52.156;20.788;2023-04-27T08:23:45;100670.79;;;7.51;83.85
38612;BME280;24368;52.156;20.788;2023-04-27T08:28:47;100672.48;;;7.45;84.30
38612;BME280;24368;52.156;20.788;2023-04-27T08:33:49;100672.18;;;7.55;80.43
38612;BME280;24368;52.156;20.788;2023-04-27T08:38:51;100677.86;;;7.48;79.87
38612;BME280;24368;52.156;20.788;2023-04-27T08:43:52;100673.98;;;7.55;81.74
38612;BME280;24368;52.156;20.788;2023-04-27T08:48:54;100672.43;;;7.86;78.04
38612;BME280;24368;52.156;20.788;2023-04-27T08:53:57;100668.69;;;8.05;75.06
38612;BME280;24368;52.156;20.788;2023-04-27T08:58:59;100671.48;;;7.89;74.57
38612;BME280;24368;52.156;20.788;2023-04-27T09:04:01;100668.91;;;7.94;76.77
38612;BME280;24368;52.156;20.788;2023-04-27T09:09:03;100666.20;;;8.05;75.03
38612;BME280;24368;52.156;20.788;2023-04-27T09:14:19;100664.49;;;8.07;75.59
38612;BME280;24368;52.156;20.788;2023-04-27T09:19:28;100654.74;;;8.41;75.13
38612;BME280;24368;52.156;20.788;2023-04-27T09:24:29;100659.59;;;8.63;71.61
38612;BME280;24368;52.156;20.788;2023-04-27T09:29:35;100650.02;;;8.66;71.68
38612;BME280;24368;52.156;20.788;2023-04-27T09:34:39;100648.38;;;8.52;71.96
38612;BME280;24368;52.156;20.788;2023-04-27T09:39:43;100651.77;;;8.23;71.59
38612;BME280;24368;52.156;20.788;2023-04-27T09:44:46;100655.02;;;7.95;74.60
38612;BME280;24368;52.156;20.788;2023-04-27T09:49:48;100669.08;;;7.55;77.96
38612;BME280;24368;52.156;20.788;2023-04-27T09:54:53;100689.33;;;7.10;82.51
38612;BME280;24368;52.156;20.788;2023-04-27T10:00:07;100706.92;;;6.50;81.65
38612;BME280;24368;52.156;20.788;2023-04-27T10:05:32;100697.33;;;6.22;87.93
38612;BME280;24368;52.156;20.788;2023-04-27T10:10:47;100688.33;;;6.26;90.29
38612;BME280;24368;52.156;20.788;2023-04-27T10:15:49;100684.41;;;6.26;93.81
38612;BME280;24368;52.156;20.788;2023-04-27T10:20:51;100682.96;;;6.38;94.76
38612;BME280;24368;52.156;20.788;2023-04-27T10:25:53;100680.98;;;6.54;95.20
38612;BME280;24368;52.156;20.788;2023-04-27T10:30:54;100678.54;;;6.72;94.30
38612;BME280;24368;52.156;20.788;2023-04-27T10:35:57;100668.02;;;6.94;91.41
38612;BME280;24368;52.156;20.788;2023-04-27T10:41:00;100675.38;;;7.25;88.19
38612;BME280;24368;52.156;20.788;2023-04-27T10:46:13;100675.31;;;7.51;88.61
38612;BME280;24368;52.156;20.788;2023-04-27T10:51:15;100666.04;;;7.79;87.20
38612;BME280;24368;52.156;20.788;2023-04-27T10:56:17;100671.34;;;7.93;80.90
38612;BME280;24368;52.156;20.788;2023-04-27T11:01:25;100674.13;;;8.10;78.21
38612;BME280;24368;52.156;20.788;2023-04-27T11:06:27;100677.95;;;8.35;77.74
38612;BME280;24368;52.156;20.788;2023-04-27T11:11:30;100673.29;;;8.52;74.77
38612;BME280;24368;52.156;20.788;2023-04-27T11:16:31;100676.41;;;8.67;73.89
38612;BME280;24368;52.156;20.788;2023-04-27T11:21:32;100679.55;;;8.68;75.07
38612;BME280;24368;52.156;20.788;2023-04-27T11:26:33;100681.98;;;8.84;75.14
38612;BME280;24368;52.156;20.788;2023-04-27T11:31:45;100672.95;;;8.94;74.83
38612;BME280;24368;52.156;20.788;2023-04-27T11:37:00;100673.92;;;9.03;73.15
38612;BME280;24368;52.156;20.788;2023-04-27T11:42:19;100677.29;;;8.83;70.94
38612;BME280;24368;52.156;20.788;2023-04-27T11:47:25;100671.47;;;8.85;72.12
38612;BME280;24368;52.156;20.788;2023-04-27T11:52:34;100667.21;;;8.92;71.03
38612;BME280;24368;52.156;20.788;2023-04-27T11:57:37;100674.23;;;8.96;66.28
38612;BME280;24368;52.156;20.788;2023-04-27T12:02:39;100672.20;;;9.03;62.82
38612;BME280;24368;52.156;20.788;2023-04-27T12:07:41;100674.93;;;9.31;57.20
38612;BME280;24368;52.156;20.788;2023-04-27T12:12:43;100670.63;;;9.51;53.82
38612;BME280;24368;52.156;20.788;2023-04-27T12:17:44;100665.14;;;9.66;51.56
38612;BME280;24368;52.156;20.788;2023-04-27T12:22:45;100661.45;;;9.62;53.97
38612;BME280;24368;52.156;20.788;2023-04-27T12:27:47;100666.14;;;9.70;54.28
38612;BME280;24368;52.156;20.788;2023-04-27T12:32:49;100664.11;;;9.79;54.72
38612;BME280;24368;52.156;20.788;2023-04-27T12:37:50;100667.70;;;9.37;58.66
38612;BME280;24368;52.156;20.788;2023-04-27T12:42:52;100680.08;;;9.13;58.31
38612;BME280;24368;52.156;20.788;2023-04-27T12:47:53;100680.77;;;9.17;59.12
38612;BME280;24368;52.156;20.788;2023-04-27T12:52:54;100681.02;;;9.47;58.14
38612;BME280;24368;52.156;20.788;2023-04-27T12:57:55;100684.01;;;10.48;54.98
38612;BME280;24368;52.156;20.788;2023-04-27T13:02:57;100689.20;;;10.68;52.12
38612;BME280;24368;52.156;20.788;2023-04-27T13:07:59;100694.05;;;9.92;55.38
38612;BME280;24368;52.156;20.788;2023-04-27T13:13:00;100695.14;;;9.78;56.04
38612;BME280;24368;52.156;20.788;2023-04-27T13:18:01;100696.40;;;9.50;55.72
38612;BME280;24368;52.156;20.788;2023-04-27T13:23:06;100700.47;;;9.35;56.83
38612;BME280;24368;52.156;20.788;2023-04-27T13:28:07;100709.95;;;9.16;57.32
38612;BME280;24368;52.156;20.788;2023-04-27T13:33:10;100703.82;;;9.03;57.51
38612;BME280;24368;52.156;20.788;2023-04-27T13:38:14;100706.80;;;8.99;58.01
38612;BME280;24368;52.156;20.788;2023-04-27T13:43:15;100710.48;;;8.93;56.85
38612;BME280;24368;52.156;20.788;2023-04-27T13:48:17;100716.14;;;8.93;57.82
38612;BME280;24368;52.156;20.788;2023-04-27T13:53:18;100719.00;;;8.98;57.79
38612;BME280;24368;52.156;20.788;2023-04-27T13:58:19;100719.46;;;9.17;57.91
38612;BME280;24368;52.156;20.788;2023-04-27T14:03:21;100721.09;;;9.24;56.91
38612;BME280;24368;52.156;20.788;2023-04-27T14:08:22;100718.62;;;9.27;58.25
38612;BME280;24368;52.156;20.788;2023-04-27T14:13:23;100721.16;;;9.20;58.08
38612;BME280;24368;52.156;20.788;2023-04-27T14:18:25;100722.36;;;9.20;57.20
38612;BME280;24368;52.156;20.788;2023-04-27T14:23:26;100728.92;;;9.21;54.29
38612;BME280;24368;52.156;20.788;2023-04-27T14:28:27;100725.01;;;9.32;55.52
38612;BME280;24368;52.156;20.788;2023-04-27T14:33:28;100727.23;;;9.54;52.54
38612;BME280;24368;52.156;20.788;2023-04-27T14:38:29;100725.33;;;9.98;52.06
38612;BME280;24368;52.156;20.788;2023-04-27T14:43:31;100730.55;;;9.87;52.96
38612;BME280;24368;52.156;20.788;2023-04-27T14:48:32;100732.23;;;9.69;54.73
38612;BME280;24368;52.156;20.788;2023-04-27T14:53:34;100733.49;;;9.45;54.58
38612;BME280;24368;52.156;20.788;2023-04-27T14:58:35;100740.88;;;9.23;54.75
38612;BME280;24368;52.156;20.788;2023-04-27T15:03:36;100743.43;;;9.19;57.16
38612;BME280;24368;52.156;20.788;2023-04-27T15:08:37;100748.35;;;9.04;57.97
38612;BME280;24368;52.156;20.788;2023-04-27T15:13:38;100746.72;;;8.89;58.95
38612;BME280;24368;52.156;20.788;2023-04-27T15:18:39;100749.95;;;8.82;60.13
38612;BME280;24368;52.156;20.788;2023-04-27T15:23:40;100751.06;;;8.85;61.11
38612;BME280;24368;52.156;20.788;2023-04-27T15:28:41;100748.28;;;8.83;61.29
38612;BME280;24368;52.156;20.788;2023-04-27T15:33:42;100743.13;;;8.78;60.77
38612;BME280;24368;52.156;20.788;2023-04-27T15:38:44;100745.66;;;8.71;62.51
38612;BME280;24368;52.156;20.788;2023-04-27T15:43:45;100744.67;;;8.68;62.71
38612;BME280;24368;52.156;20.788;2023-04-27T15:48:47;100749.57;;;8.72;60.58
38612;BME280;24368;52.156;20.788;2023-04-27T15:53:48;100747.64;;;8.68;59.70
38612;BME280;24368;52.156;20.788;2023-04-27T15:58:49;100758.23;;;8.66;61.15
38612;BME280;24368;52.156;20.788;2023-04-27T16:03:51;100758.80;;;8.58;61.47
38612;BME280;24368;52.156;20.788;2023-04-27T16:08:52;100756.70;;;8.48;61.78
38612;BME280;24368;52.156;20.788;2023-04-27T16:13:53;100757.30;;;8.50;61.21
38612;BME280;24368;52.156;20.788;2023-04-27T16:18:55;100757.41;;;8.40;61.46
38612;BME280;24368;52.156;20.788;2023-04-27T16:23:56;100755.01;;;8.45;61.50
38612;BME280;24368;52.156;20.788;2023-04-27T16:28:57;100754.06;;;8.48;61.67
38612;BME280;24368;52.156;20.788;2023-04-27T16:33:58;100757.43;;;8.50;62.07
38612;BME280;24368;52.156;20.788;2023-04-27T16:39:00;100755.76;;;8.49;62.39
38612;BME280;24368;52.156;20.788;2023-04-27T16:44:02;100756.44;;;8.47;61.49
38612;BME280;24368;52.156;20.788;2023-04-27T16:49:03;100757.97;;;8.44;62.02
38612;BME280;24368;52.156;20.788;2023-04-27T16:54:04;100761.65;;;8.58;62.19
38612;BME280;24368;52.156;20.788;2023-04-27T16:59:05;100773.88;;;8.47;62.37
38612;BME280;24368;52.156;20.788;2023-04-27T17:04:07;100775.74;;;8.45;62.77
38612;BME280;24368;52.156;20.788;2023-04-27T17:09:08;100778.77;;;8.38;62.26
38612;BME280;24368;52.156;20.788;2023-04-27T17:14:10;100775.31;;;8.29;64.41
38612;BME280;24368;52.156;20.788;2023-04-27T17:19:11;100777.80;;;8.23;63.14
38612;BME280;24368;52.156;20.788;2023-04-27T17:24:13;100779.47;;;8.15;63.50
38612;BME280;24368;52.156;20.788;2023-04-27T17:29:14;100783.74;;;7.98;65.49
38612;BME280;24368;52.156;20.788;2023-04-27T17:34:15;100784.84;;;7.91;66.35
38612;BME280;24368;52.156;20.788;2023-04-27T17:39:16;100788.27;;;7.83;66.75
38612;BME280;24368;52.156;20.788;2023-04-27T17:44:18;100785.62;;;7.83;67.75
38612;BME280;24368;52.156;20.788;2023-04-27T17:49:19;100790.69;;;7.77;68.17
38612;BME280;24368;52.156;20.788;2023-04-27T17:54:20;100788.10;;;7.73;69.22
38612;BME280;24368;52.156;20.788;2023-04-27T17:59:21;100793.77;;;7.65;70.04
38612;BME280;24368;52.156;20.788;2023-04-27T18:04:22;100799.23;;;7.60;70.32
38612;BME280;24368;52.156;20.788;2023-04-27T18:09:23;100804.99;;;7.58;70.11
38612;BME280;24368;52.156;20.788;2023-04-27T18:14:26;100808.67;;;7.54;69.90
38612;BME280;24368;52.156;20.788;2023-04-27T18:19:27;100817.05;;;7.48;69.89
38612;BME280;24368;52.156;20.788;2023-04-27T18:24:28;100820.38;;;7.46;70.09
38612;BME280;24368;52.156;20.788;2023-04-27T18:29:29;100825.77;;;7.40;71.13
38612;BME280;24368;52.156;20.788;2023-04-27T18:34:31;100828.48;;;7.33;71.26
38612;BME280;24368;52.156;20.788;2023-04-27T18:39:33;100828.55;;;7.27;71.64
38612;BME280;24368;52.156;20.788;2023-04-27T18:44:34;100833.49;;;7.23;71.75
38612;BME280;24368;52.156;20.788;2023-04-27T18:49:36;100836.30;;;7.18;71.80
38612;BME280;24368;52.156;20.788;2023-04-27T18:54:38;100839.58;;;7.14;73.64
38612;BME280;24368;52.156;20.788;2023-04-27T18:59:40;100839.66;;;6.99;74.34
38612;BME280;24368;52.156;20.788;2023-04-27T19:04:41;100841.58;;;6.93;74.63
38612;BME280;24368;52.156;20.788;2023-04-27T19:09:43;100839.08;;;6.94;74.31
38612;BME280;24368;52.156;20.788;2023-04-27T19:14:44;100838.02;;;6.87;74.64
38612;BME280;24368;52.156;20.788;2023-04-27T19:19:45;100836.28;;;6.79;76.68
38612;BME280;24368;52.156;20.788;2023-04-27T19:24:46;100834.63;;;6.67;77.86
38612;BME280;24368;52.156;20.788;2023-04-27T19:29:50;100841.34;;;6.55;78.84
38612;BME280;24368;52.156;20.788;2023-04-27T19:34:55;100845.65;;;6.46;79.07
38612;BME280;24368;52.156;20.788;2023-04-27T19:39:57;100849.83;;;6.56;78.46
38612;BME280;24368;52.156;20.788;2023-04-27T19:44:58;100845.21;;;6.61;77.49
38612;BME280;24368;52.156;20.788;2023-04-27T19:50:01;100850.16;;;6.60;78.23
38612;BME280;24368;52.156;20.788;2023-04-27T19:55:02;100850.61;;;6.61;77.73
38612;BME280;24368;52.156;20.788;2023-04-27T20:00:04;100847.45;;;6.59;78.80
38612;BME280;24368;52.156;20.788;2023-04-27T20:05:11;100851.20;;;6.51;79.48
38612;BME280;24368;52.156;20.788;2023-04-27T20:10:13;100847.58;;;6.42;79.60
38612;BME280;24368;52.156;20.788;2023-04-27T20:21:06;100857.52;;;6.28;79.54
38612;BME280;24368;52.156;20.788;2023-04-27T20:26:07;100858.60;;;6.08;82.47
38612;BME280;24368;52.156;20.788;2023-04-27T20:31:08;100863.80;;;5.90;82.27
38612;BME280;24368;52.156;20.788;2023-04-27T20:36:10;100866.52;;;5.79;82.95
38612;BME280;24368;52.156;20.788;2023-04-27T20:41:11;100873.30;;;5.89;82.30
38612;BME280;24368;52.156;20.788;2023-04-27T20:46:13;100875.23;;;5.96;82.15
38612;BME280;24368;52.156;20.788;2023-04-27T20:51:14;100875.84;;;5.90;82.84
38612;BME280;24368;52.156;20.788;2023-04-27T20:56:15;100878.02;;;5.84;83.29
38612;BME280;24368;52.156;20.788;2023-04-27T21:01:16;100879.77;;;5.70;83.69
38612;BME280;24368;52.156;20.788;2023-04-27T21:06:17;100883.59;;;5.65;84.50
38612;BME280;24368;52.156;20.788;2023-04-27T21:11:18;100881.21;;;5.59;85.40
38612;BME280;24368;52.156;20.788;2023-04-27T21:16:20;100878.98;;;5.58;85.55
38612;BME280;24368;52.156;20.788;2023-04-27T21:21:21;100884.80;;;5.62;85.90
38612;BME280;24368;52.156;20.788;2023-04-27T21:26:24;100882.95;;;5.59;84.92
38612;BME280;24368;52.156;20.788;2023-04-27T21:31:25;100883.08;;;5.55;85.51
38612;BME280;24368;52.156;20.788;2023-04-27T21:36:26;100885.34;;;5.50;85.81
38612;BME280;24368;52.156;20.788;2023-04-27T21:41:27;100887.73;;;5.46;85.37
38612;BME280;24368;52.156;20.788;2023-04-27T21:46:28;100889.88;;;5.38;86.67
38612;BME280;24368;52.156;20.788;2023-04-27T21:51:29;100891.95;;;5.33;86.00
38612;BME280;24368;52.156;20.788;2023-04-27T21:56:34;100895.17;;;5.30;85.65
38612;BME280;24368;52.156;20.788;2023-04-27T22:01:37;100897.73;;;5.33;85.26
38612;BME280;24368;52.156;20.788;2023-04-27T22:06:38;100904.04;;;5.28;85.33
38612;BME280;24368;52.156;20.788;2023-04-27T22:11:40;100904.54;;;5.21;85.97
38612;BME280;24368;52.156;20.788;2023-04-27T22:16:41;100901.26;;;5.17;85.93
38612;BME280;24368;52.156;20.788;2023-04-27T22:21:43;100903.71;;;5.12;85.86
38612;BME280;24368;52.156;20.788;2023-04-27T22:26:45;100906.30;;;5.10;86.62
38612;BME280;24368;52.156;20.788;2023-04-27T22:31:49;100909.90;;;5.03;86.24
38612;BME280;24368;52.156;20.788;2023-04-27T22:36:50;100910.44;;;5.06;86.47
38612;BME280;24368;52.156;20.788;2023-04-27T22:41:52;100908.77;;;5.04;86.71
38612;BME280;24368;52.156;20.788;2023-04-27T22:46:53;100907.43;;;4.88;87.85
38612;BME280;24368;52.156;20.788;2023-04-27T22:51:55;100906.21;;;4.62;88.18
38612;BME280;24368;52.156;20.788;2023-04-27T22:56:57;100911.50;;;4.67;88.23
38612;BME280;24368;52.156;20.788;2023-04-27T23:01:58;100910.86;;;4.81;86.63
38612;BME280;24368;52.156;20.788;2023-04-27T23:06:59;100915.89;;;4.75;86.92
38612;BME280;24368;52.156;20.788;2023-04-27T23:12:00;100910.95;;;4.73;87.52
38612;BME280;24368;52.156;20.788;2023-04-27T23:17:01;100914.39;;;4.73;87.69
38612;BME280;24368;52.156;20.788;2023-04-27T23:22:02;100917.49;;;4.79;88.52
38612;BME280;24368;52.156;20.788;2023-04-27T23:27:04;100921.75;;;4.70;89.19
38612;BME280;24368;52.156;20.788;2023-04-27T23:32:05;100914.34;;;4.61;91.18
38612;BME280;24368;52.156;20.788;2023-04-27T23:37:06;100920.14;;;4.31;93.06
38612;BME280;24368;52.156;20.788;2023-04-27T23:42:07;100920.73;;;3.97;94.48
38612;BME280;24368;52.156;20.788;2023-04-27T23:47:08;100923.09;;;3.83;95.30
38612;BME280;24368;52.156;20.788;2023-04-27T23:52:12;100924.27;;;3.86;96.74
38612;BME280;24368;52.156;20.788;2023-04-27T23:57:14;100925.02;;;3.90;96.84
